createdAt,value
2023-01-26T00:01:15.198Z,16.73
2023-01-26T00:03:42.539Z,17.23
2023-01-26T00:06:12.539Z,16.37
2023-01-26T00:08:47.695Z,15.17
2023-01-26T00:11:16.942Z,15.33
2023-01-26T00:13:44.383Z,17.83
2023-01-26T00:16:13.970Z,17.73
2023-01-26T00:18:42.849Z,16.63
2023-01-26T00:21:22.921Z,16.73
2023-01-26T00:23:50.935Z,16.87
2023-01-26T00:26:20.555Z,18.47
2023-01-26T00:28:47.556Z,19.00
2023-01-26T00:31:17.861Z,20.53
2023-01-26T00:33:44.877Z,19.57
2023-01-26T00:36:12.646Z,20.57
2023-01-26T00:38:39.650Z,21.43
2023-01-26T00:41:06.508Z,19.60
2023-01-26T00:43:33.418Z,17.03
2023-01-26T00:46:00.126Z,19.77
2023-01-26T00:48:26.794Z,19.50
2023-01-26T00:50:53.732Z,16.80
2023-01-26T00:53:20.400Z,16.73
2023-01-26T00:55:47.051Z,15.63
2023-01-26T00:58:13.714Z,17.07
2023-01-26T01:00:40.459Z,15.57
2023-01-26T01:03:07.445Z,15.93
2023-01-26T01:05:34.757Z,17.77
2023-01-26T01:08:01.650Z,15.70
2023-01-26T01:10:28.696Z,16.57
2023-01-26T01:12:56.616Z,16.63
2023-01-26T01:15:24.335Z,16.77
2023-01-26T01:17:51.328Z,17.23
2023-01-26T01:20:18.215Z,15.93
2023-01-26T01:22:44.846Z,15.90
2023-01-26T01:25:11.474Z,16.23
2023-01-26T01:27:38.254Z,17.93
2023-01-26T01:30:07.981Z,15.03
2023-01-26T01:32:36.252Z,16.80
2023-01-26T01:35:03.735Z,15.27
2023-01-26T01:37:30.811Z,15.27
2023-01-26T01:39:57.519Z,18.17
2023-01-26T01:42:24.323Z,19.13
2023-01-26T01:45:36.387Z,18.73
2023-01-26T01:48:06.279Z,18.17
2023-01-26T01:50:38.596Z,16.77
2023-01-26T01:53:07.874Z,18.13
2023-01-26T01:55:35.395Z,17.27
2023-01-26T01:58:04.287Z,20.50
2023-01-26T02:00:31.053Z,21.10
2023-01-26T02:03:19.362Z,16.80
2023-01-26T02:06:19.223Z,16.43
2023-01-26T02:08:50.470Z,15.63
2023-01-26T02:11:22.522Z,19.50
2023-01-26T02:13:49.655Z,20.23
2023-01-26T02:16:17.521Z,20.63
2023-01-26T02:18:45.698Z,11.87
2023-01-26T02:21:17.403Z,16.97
2023-01-26T02:24:04.836Z,15.23
2023-01-26T02:26:34.097Z,14.47
2023-01-26T02:29:02.000Z,18.13
2023-01-26T02:31:29.620Z,16.27
2023-01-26T02:33:56.403Z,20.23
2023-01-26T02:36:25.484Z,14.70
2023-01-26T02:39:23.848Z,21.20
2023-01-26T02:42:10.240Z,20.27
2023-01-26T02:44:38.241Z,14.70
2023-01-26T02:47:15.997Z,17.10
2023-01-26T02:49:50.335Z,17.73
2023-01-26T02:52:20.406Z,17.33
2023-01-26T02:55:05.642Z,17.50
2023-01-26T02:57:34.359Z,11.63
2023-01-26T03:00:01.306Z,16.30
2023-01-26T03:02:28.117Z,20.23
2023-01-26T03:04:54.727Z,11.47
2023-01-26T03:07:21.375Z,17.10
2023-01-26T03:09:47.967Z,19.27
2023-01-26T03:12:14.646Z,15.20
2023-01-26T03:14:41.635Z,13.93
2023-01-26T03:17:08.304Z,17.00
2023-01-26T03:19:53.472Z,14.23
2023-01-26T03:22:38.994Z,14.00
2023-01-26T03:25:24.281Z,13.60
2023-01-26T03:27:50.937Z,13.10
2023-01-26T03:30:19.470Z,15.47
2023-01-26T03:32:46.207Z,18.27
2023-01-26T03:35:15.224Z,17.20
2023-01-26T03:37:43.562Z,14.57
2023-01-26T03:40:30.404Z,14.33
2023-01-26T03:43:16.028Z,13.30
2023-01-26T03:46:01.305Z,14.13
2023-01-26T03:48:46.752Z,13.77
2023-01-26T03:51:32.164Z,12.10
2023-01-26T03:54:17.477Z,11.37
2023-01-26T03:56:44.574Z,15.17
2023-01-26T03:59:15.051Z,10.73
2023-01-26T04:02:04.462Z,17.27
2023-01-26T04:04:49.773Z,13.30
2023-01-26T04:07:35.319Z,13.23
2023-01-26T04:10:02.084Z,14.67
2023-01-26T04:12:28.733Z,14.33
2023-01-26T04:15:13.851Z,14.50
2023-01-26T04:17:59.103Z,14.50
2023-01-26T04:20:44.493Z,16.90
2023-01-26T04:23:20.372Z,14.07
2023-01-26T04:25:48.020Z,15.30
2023-01-26T04:28:14.840Z,14.83
2023-01-26T04:30:41.603Z,16.70
2023-01-26T04:33:08.262Z,16.20
2023-01-26T04:35:34.894Z,15.63
2023-01-26T04:38:01.542Z,15.20
2023-01-26T04:40:28.251Z,16.20
2023-01-26T04:42:54.874Z,18.10
2023-01-26T04:45:21.548Z,14.70
2023-01-26T04:47:48.216Z,14.33
2023-01-26T04:50:15.010Z,14.80
2023-01-26T04:52:41.961Z,15.63
2023-01-26T04:55:09.029Z,14.03
2023-01-26T04:57:35.846Z,15.23
2023-01-26T05:00:02.552Z,14.63
2023-01-26T05:02:29.264Z,14.50
2023-01-26T05:04:55.853Z,15.50
2023-01-26T05:07:22.452Z,14.87
2023-01-26T05:09:49.065Z,15.40
2023-01-26T05:12:33.847Z,15.13
2023-01-26T05:15:00.483Z,14.40
2023-01-26T05:17:27.147Z,13.47
2023-01-26T05:19:53.752Z,14.50
2023-01-26T05:22:20.404Z,14.47
2023-01-26T05:24:46.975Z,14.27
2023-01-26T05:27:22.561Z,16.70
2023-01-26T05:29:50.632Z,15.87
2023-01-26T05:32:17.760Z,16.40
2023-01-26T05:34:44.734Z,13.87
2023-01-26T05:37:14.457Z,15.53
2023-01-26T05:39:41.567Z,13.80
2023-01-26T05:42:08.285Z,15.13
2023-01-26T05:44:34.901Z,12.50
2023-01-26T05:47:01.533Z,16.80
2023-01-26T05:49:28.151Z,15.80
2023-01-26T05:51:54.833Z,16.47
2023-01-26T05:54:21.451Z,19.40
2023-01-26T05:56:48.220Z,15.97
2023-01-26T05:59:15.400Z,16.13
2023-01-26T06:01:42.037Z,17.80
2023-01-26T06:04:08.785Z,14.77
2023-01-26T06:06:35.453Z,16.10
2023-01-26T06:09:02.137Z,16.90
2023-01-26T06:11:28.738Z,17.37
2023-01-26T06:13:55.562Z,14.43
2023-01-26T06:16:22.216Z,15.10
2023-01-26T06:18:49.797Z,15.03
2023-01-26T06:21:16.672Z,17.23
2023-01-26T06:23:43.778Z,18.27
2023-01-26T06:26:10.987Z,16.27
2023-01-26T06:28:37.797Z,15.80
2023-01-26T06:31:06.168Z,12.97
2023-01-26T06:33:34.904Z,13.70
2023-01-26T06:36:06.278Z,16.10
2023-01-26T06:38:33.204Z,16.87
2023-01-26T06:41:02.919Z,18.97
2023-01-26T06:43:33.768Z,15.63
2023-01-26T06:46:01.317Z,17.10
2023-01-26T06:48:30.071Z,12.90
2023-01-26T06:50:58.650Z,15.87
2023-01-26T06:53:37.601Z,16.03
2023-01-26T06:56:04.504Z,16.40
2023-01-26T06:58:31.131Z,17.07
2023-01-26T07:00:58.008Z,16.50
2023-01-26T07:03:24.715Z,15.77
2023-01-26T07:05:51.378Z,16.47
2023-01-26T07:08:18.206Z,14.83
2023-01-26T07:10:44.900Z,15.20
2023-01-26T07:13:11.562Z,16.80
2023-01-26T07:15:38.319Z,16.63
2023-01-26T07:18:04.988Z,16.47
2023-01-26T07:20:31.616Z,15.10
2023-01-26T07:23:00.795Z,15.17
2023-01-26T07:25:27.740Z,14.83
2023-01-26T07:27:58.630Z,15.20
2023-01-26T07:30:27.066Z,16.13
2023-01-26T07:32:53.686Z,16.70
2023-01-26T07:35:20.391Z,15.60
2023-01-26T07:37:47.034Z,15.13
2023-01-26T07:40:14.000Z,16.23
2023-01-26T07:42:40.803Z,14.37
2023-01-26T07:45:07.914Z,14.17
2023-01-26T07:47:35.866Z,16.73
2023-01-26T07:50:02.567Z,14.93
2023-01-26T07:52:29.305Z,15.37
2023-01-26T07:54:55.960Z,14.63
2023-01-26T07:57:22.625Z,16.00
2023-01-26T07:59:49.263Z,16.07
2023-01-26T08:02:15.921Z,14.33
2023-01-26T08:04:42.567Z,15.03
2023-01-26T08:07:09.198Z,14.90
2023-01-26T08:09:36.081Z,14.77
2023-01-26T08:12:02.678Z,13.10
2023-01-26T08:14:41.602Z,13.93
2023-01-26T08:17:08.391Z,14.07
2023-01-26T08:19:35.057Z,12.67
2023-01-26T08:22:01.653Z,13.83
2023-01-26T08:24:28.259Z,12.67
2023-01-26T08:26:54.891Z,12.53
2023-01-26T08:29:21.512Z,13.53
2023-01-26T08:31:48.141Z,14.53
2023-01-26T08:34:14.893Z,13.60
2023-01-26T08:36:41.554Z,12.33
2023-01-26T08:39:08.196Z,14.30
2023-01-26T08:41:34.878Z,13.13
2023-01-26T08:44:01.657Z,14.13
2023-01-26T08:46:28.346Z,14.00
2023-01-26T08:48:54.944Z,14.20
2023-01-26T08:51:21.697Z,12.80
2023-01-26T08:53:48.333Z,12.33
2023-01-26T08:56:14.988Z,14.23
2023-01-26T08:58:42.133Z,15.70
2023-01-26T09:01:12.446Z,15.27
2023-01-26T09:03:39.749Z,12.93
2023-01-26T09:06:07.801Z,13.90
2023-01-26T09:08:34.676Z,11.57
2023-01-26T09:11:01.556Z,11.30
2023-01-26T09:13:28.392Z,14.60
2023-01-26T09:15:55.123Z,11.33
2023-01-26T09:18:21.726Z,11.17
2023-01-26T09:20:49.780Z,11.47
2023-01-26T09:23:18.112Z,11.33
2023-01-26T09:25:45.031Z,11.23
2023-01-26T09:28:11.700Z,11.97
2023-01-26T09:30:38.459Z,13.00
2023-01-26T09:33:06.812Z,12.83
2023-01-26T09:35:33.918Z,12.63
2023-01-26T09:38:00.578Z,13.23
2023-01-26T09:40:49.718Z,11.97
2023-01-26T09:43:35.124Z,13.27
2023-01-26T09:46:04.860Z,11.60
2023-01-26T09:48:41.052Z,12.33
2023-01-26T09:51:28.363Z,11.57
2023-01-26T09:53:59.338Z,13.20
2023-01-26T09:56:29.898Z,13.27
2023-01-26T09:59:03.341Z,11.57
2023-01-26T10:01:40.072Z,12.30
2023-01-26T10:04:24.775Z,12.87
2023-01-26T10:06:54.315Z,12.80
2023-01-26T10:09:25.502Z,13.27
2023-01-26T10:11:56.295Z,12.83
2023-01-26T10:14:34.525Z,12.33
2023-01-26T10:17:02.842Z,12.93
2023-01-26T10:19:34.181Z,13.13
2023-01-26T10:22:07.317Z,12.67
2023-01-26T10:24:34.894Z,11.97
2023-01-26T10:27:01.562Z,12.43
2023-01-26T10:29:28.219Z,11.97
2023-01-26T10:31:55.458Z,13.33
2023-01-26T10:34:27.422Z,12.90
2023-01-26T10:37:18.700Z,13.00
2023-01-26T10:40:04.424Z,14.30
2023-01-26T10:42:33.225Z,12.67
2023-01-26T10:45:02.171Z,13.97
2023-01-26T10:47:29.414Z,12.93
2023-01-26T10:50:22.115Z,13.47
2023-01-26T10:53:04.012Z,12.83
2023-01-26T10:55:33.316Z,12.37
2023-01-26T10:58:01.064Z,12.70
2023-01-26T11:00:33.412Z,12.60
2023-01-26T11:03:20.383Z,13.03
2023-01-26T11:06:06.852Z,13.77
2023-01-26T11:08:37.533Z,11.53
2023-01-26T11:11:07.694Z,13.50
2023-01-26T11:13:34.327Z,13.10
2023-01-26T11:16:14.266Z,14.17
2023-01-26T11:18:59.038Z,11.80
2023-01-26T11:21:43.743Z,11.97
2023-01-26T11:24:26.617Z,13.30
2023-01-26T11:27:05.488Z,13.27
2023-01-26T11:29:52.400Z,12.70
2023-01-26T11:32:41.593Z,12.63
2023-01-26T11:35:21.268Z,11.83
2023-01-26T11:37:54.070Z,13.70
2023-01-26T11:40:34.982Z,13.40
2023-01-26T11:43:20.057Z,14.70
2023-01-26T11:46:05.016Z,13.40
2023-01-26T11:48:52.828Z,13.53
2023-01-26T11:51:44.019Z,13.53
2023-01-26T11:54:29.687Z,13.13
2023-01-26T11:57:33.853Z,12.73
2023-01-26T12:00:30.387Z,14.03
2023-01-26T12:03:06.094Z,14.13
2023-01-26T12:05:49.799Z,13.57
2023-01-26T12:08:42.107Z,15.13
2023-01-26T12:11:22.303Z,13.33
2023-01-26T12:14:24.435Z,13.57
2023-01-26T12:17:18.384Z,14.37
2023-01-26T12:20:04.772Z,14.60
2023-01-26T12:22:42.074Z,13.80
2023-01-26T12:25:32.908Z,15.60
2023-01-26T12:28:14.910Z,14.90
2023-01-26T12:31:07.853Z,14.73
2023-01-26T12:33:36.283Z,12.33
2023-01-26T12:36:45.686Z,16.20
2023-01-26T12:39:33.461Z,14.23
2023-01-26T12:42:19.125Z,15.97
2023-01-26T12:44:48.228Z,14.00
2023-01-26T12:47:48.988Z,14.80
2023-01-26T12:50:38.487Z,13.40
2023-01-26T12:53:32.055Z,16.23
2023-01-26T12:56:04.566Z,18.90
2023-01-26T12:58:40.185Z,13.90
2023-01-26T13:01:13.574Z,16.43
2023-01-26T13:03:44.833Z,14.53
2023-01-26T13:06:14.239Z,15.40
2023-01-26T13:08:48.191Z,15.97
2023-01-26T13:11:43.816Z,13.70
2023-01-26T13:14:36.604Z,15.03
2023-01-26T13:17:15.483Z,16.10
2023-01-26T13:19:42.061Z,13.33
2023-01-26T13:22:24.030Z,15.07
2023-01-26T13:24:57.715Z,13.83
2023-01-26T13:27:39.456Z,15.03
2023-01-26T13:30:24.524Z,17.10
2023-01-26T13:32:52.639Z,18.33
2023-01-26T13:35:23.016Z,14.90
2023-01-26T13:37:52.639Z,16.17
2023-01-26T13:40:31.080Z,13.40
2023-01-26T13:43:20.784Z,16.60
2023-01-26T13:46:00.938Z,14.80
2023-01-26T13:48:41.288Z,15.20
2023-01-26T13:51:13.229Z,16.10
2023-01-26T13:54:07.459Z,16.73
2023-01-26T13:56:39.397Z,16.23
2023-01-26T13:59:14.757Z,15.63
2023-01-26T14:01:43.761Z,18.97
2023-01-26T14:04:20.035Z,17.93
2023-01-26T14:07:06.524Z,19.17
2023-01-26T14:09:44.346Z,15.63
2023-01-26T14:12:19.024Z,17.97
2023-01-26T14:14:48.128Z,17.87
2023-01-26T14:17:32.796Z,16.47
2023-01-26T14:20:00.369Z,19.07
2023-01-26T14:22:27.810Z,19.17
2023-01-26T14:24:54.855Z,18.60
2023-01-26T14:27:33.673Z,16.83
2023-01-26T14:30:00.903Z,18.03
2023-01-26T14:32:29.714Z,18.77
2023-01-26T14:34:59.594Z,16.30
2023-01-26T14:37:27.987Z,18.60
2023-01-26T14:40:21.640Z,18.37
2023-01-26T14:42:50.512Z,18.83
2023-01-26T14:45:17.656Z,19.80
2023-01-26T14:47:45.332Z,17.67
2023-01-26T14:50:23.247Z,21.57
2023-01-26T14:52:50.209Z,19.07
2023-01-26T14:55:25.934Z,15.27
2023-01-26T14:57:53.957Z,17.87
2023-01-26T15:00:30.829Z,17.87
2023-01-26T15:03:00.504Z,18.63
2023-01-26T15:05:38.633Z,17.23
2023-01-26T15:08:23.751Z,17.60
2023-01-26T15:10:53.130Z,18.60
2023-01-26T15:13:23.522Z,19.43
2023-01-26T15:16:11.963Z,17.87
2023-01-26T15:18:38.678Z,19.17
2023-01-26T15:21:19.969Z,19.80
2023-01-26T15:23:51.301Z,15.50
2023-01-26T15:26:35.358Z,17.07
2023-01-26T15:29:24.834Z,18.13
2023-01-26T15:31:54.314Z,17.03
2023-01-26T15:34:40.450Z,18.90
2023-01-26T15:37:30.905Z,18.63
2023-01-26T15:39:57.718Z,16.73
2023-01-26T15:42:30.212Z,17.30
2023-01-26T15:44:57.545Z,19.13
2023-01-26T15:47:24.376Z,18.10
2023-01-26T15:49:51.130Z,17.73
2023-01-26T15:52:30.393Z,17.60
2023-01-26T15:54:57.128Z,16.80
2023-01-26T15:57:23.760Z,19.50
2023-01-26T15:59:50.381Z,18.03
2023-01-26T16:02:21.208Z,17.17
2023-01-26T16:04:48.533Z,17.17
2023-01-26T16:07:18.078Z,18.60
2023-01-26T16:09:44.832Z,18.27
2023-01-26T16:12:30.848Z,17.20
2023-01-26T16:14:58.793Z,17.73
2023-01-26T16:17:25.423Z,17.47
2023-01-26T16:19:52.201Z,17.53
2023-01-26T16:22:18.888Z,17.57
2023-01-26T16:24:46.986Z,18.10
2023-01-26T16:27:13.617Z,18.37
2023-01-26T16:29:40.368Z,18.27
2023-01-26T16:32:28.292Z,16.83
2023-01-26T16:34:55.157Z,18.77
2023-01-26T16:37:21.807Z,17.97
2023-01-26T16:39:48.475Z,18.73
2023-01-26T16:42:19.182Z,20.20
2023-01-26T16:44:46.809Z,17.70
2023-01-26T16:47:13.428Z,19.13
2023-01-26T16:49:40.045Z,17.33
2023-01-26T16:52:09.416Z,18.40
2023-01-26T16:54:36.095Z,18.93
2023-01-26T16:57:02.780Z,19.67
2023-01-26T16:59:29.465Z,17.20
2023-01-26T17:01:56.568Z,23.53
2023-01-26T17:04:23.251Z,18.33
2023-01-26T17:06:49.911Z,18.20
2023-01-26T17:09:16.585Z,21.97
2023-01-26T17:11:43.222Z,19.13
2023-01-26T17:14:11.830Z,21.70
2023-01-26T17:16:39.064Z,20.70
2023-01-26T17:19:08.878Z,20.27
2023-01-26T17:21:35.841Z,18.70
2023-01-26T17:24:02.465Z,20.47
2023-01-26T17:26:29.091Z,20.50
2023-01-26T17:28:56.387Z,21.20
2023-01-26T17:31:24.067Z,21.53
2023-01-26T17:33:51.563Z,27.87
2023-01-26T17:36:19.145Z,24.00
2023-01-26T17:38:46.614Z,22.23
2023-01-26T17:41:13.295Z,24.43
2023-01-26T17:43:40.039Z,22.90
2023-01-26T17:46:15.105Z,23.70
2023-01-26T17:48:44.781Z,22.67
2023-01-26T17:51:14.107Z,20.93
2023-01-26T17:53:41.879Z,22.27
2023-01-26T17:56:11.786Z,22.03
2023-01-26T17:58:39.161Z,23.87
2023-01-26T18:01:08.318Z,24.47
2023-01-26T18:03:35.310Z,27.00
2023-01-26T18:06:02.043Z,23.80
2023-01-26T18:08:28.749Z,22.27
2023-01-26T18:11:03.943Z,27.20
2023-01-26T18:13:31.975Z,26.80
2023-01-26T18:15:59.110Z,26.23
2023-01-26T18:18:28.075Z,22.80
2023-01-26T18:20:55.159Z,23.63
2023-01-26T18:23:22.945Z,29.33
2023-01-26T18:25:49.636Z,27.33
2023-01-26T18:28:17.040Z,30.50
2023-01-26T18:30:43.688Z,27.63
2023-01-26T18:33:10.602Z,27.57
2023-01-26T18:35:37.245Z,33.77
2023-01-26T18:38:03.885Z,29.60
2023-01-26T18:40:30.991Z,32.67
2023-01-26T18:42:57.777Z,29.73
2023-01-26T18:45:24.438Z,33.60
2023-01-26T18:47:51.105Z,29.53
2023-01-26T18:50:17.991Z,28.87
2023-01-26T18:52:44.626Z,36.87
2023-01-26T18:55:11.806Z,35.07
2023-01-26T18:57:38.839Z,35.00
2023-01-26T19:00:08.461Z,34.07
2023-01-26T19:02:39.408Z,31.67
2023-01-26T19:05:07.454Z,33.77
2023-01-26T19:07:34.991Z,28.37
2023-01-26T19:10:01.948Z,27.73
2023-01-26T19:12:28.579Z,31.13
2023-01-26T19:14:55.207Z,30.83
2023-01-26T19:17:21.908Z,30.40
2023-01-26T19:19:48.525Z,29.57
2023-01-26T19:22:15.145Z,27.13
2023-01-26T19:24:42.953Z,24.83
2023-01-26T19:27:10.486Z,33.10
2023-01-26T19:29:37.168Z,30.33
2023-01-26T19:32:04.100Z,30.27
2023-01-26T19:34:32.148Z,33.20
2023-01-26T19:36:58.932Z,31.60
2023-01-26T19:39:26.685Z,27.80
2023-01-26T19:41:53.694Z,29.70
2023-01-26T19:44:20.349Z,31.47
2023-01-26T19:46:50.568Z,29.50
2023-01-26T19:49:17.476Z,30.57
2023-01-26T19:51:44.143Z,30.10
2023-01-26T19:54:11.027Z,25.27
2023-01-26T19:56:37.931Z,29.80
2023-01-26T19:59:07.691Z,28.90
2023-01-26T20:01:34.732Z,25.10
2023-01-26T20:04:03.903Z,28.93
2023-01-26T20:06:32.783Z,27.97
2023-01-26T20:09:00.674Z,29.43
2023-01-26T20:11:29.504Z,30.77
2023-01-26T20:14:05.724Z,28.60
2023-01-26T20:16:34.215Z,34.73
2023-01-26T20:19:01.368Z,32.87
2023-01-26T20:21:29.261Z,34.20
2023-01-26T20:23:56.399Z,36.30
2023-01-26T20:26:25.173Z,32.03
2023-01-26T20:28:52.509Z,36.33
2023-01-26T20:31:22.439Z,35.30
2023-01-26T20:33:50.190Z,32.17
2023-01-26T20:36:19.918Z,37.27
2023-01-26T20:38:48.239Z,31.80
2023-01-26T20:41:19.142Z,31.33
2023-01-26T20:43:59.689Z,34.17
2023-01-26T20:46:40.584Z,41.13
2023-01-26T20:49:10.248Z,33.60
2023-01-26T20:51:39.369Z,26.13
2023-01-26T20:54:07.568Z,37.40
2023-01-26T20:56:35.421Z,37.00
2023-01-26T20:59:02.579Z,31.13
2023-01-26T21:01:29.282Z,34.70
2023-01-26T21:03:56.067Z,36.00
2023-01-26T21:06:24.307Z,33.87
2023-01-26T21:08:55.051Z,39.17
2023-01-26T21:11:23.839Z,35.23
2023-01-26T21:13:51.884Z,36.13
2023-01-26T21:16:19.246Z,36.17
2023-01-26T21:18:46.160Z,34.90
2023-01-26T21:21:17.563Z,37.07
2023-01-26T21:23:44.574Z,30.33
2023-01-26T21:26:17.149Z,41.83
2023-01-26T21:28:44.255Z,31.47
2023-01-26T21:31:15.131Z,32.97
2023-01-26T21:33:44.019Z,35.60
2023-01-26T21:36:19.609Z,40.40
2023-01-26T21:38:48.192Z,34.47
2023-01-26T21:41:36.210Z,34.20
2023-01-26T21:44:04.174Z,34.10
2023-01-26T21:46:31.040Z,36.53
2023-01-26T21:48:58.057Z,33.03
2023-01-26T21:51:44.546Z,36.50
2023-01-26T21:54:11.935Z,33.73
2023-01-26T21:56:39.161Z,33.47
2023-01-26T21:59:08.465Z,32.40
2023-01-26T22:01:37.372Z,35.77
2023-01-26T22:04:07.641Z,35.17
2023-01-26T22:06:35.748Z,38.40
2023-01-26T22:09:03.094Z,38.60
2023-01-26T22:11:30.100Z,38.90
2023-01-26T22:13:56.950Z,36.73
2023-01-26T22:16:23.629Z,35.93
2023-01-26T22:18:50.603Z,40.03
2023-01-26T22:21:18.597Z,33.27
2023-01-26T22:23:46.065Z,40.03
2023-01-26T22:26:16.103Z,35.53
2023-01-26T22:28:49.896Z,36.67
2023-01-26T22:31:18.136Z,33.77
2023-01-26T22:33:45.156Z,39.00
2023-01-26T22:36:12.978Z,31.43
2023-01-26T22:38:40.099Z,33.20
2023-01-26T22:41:07.563Z,43.07
2023-01-26T22:43:35.215Z,39.60
2023-01-26T22:46:06.755Z,35.87
2023-01-26T22:48:33.818Z,39.57
2023-01-26T22:51:17.981Z,42.00
2023-01-26T22:53:45.161Z,41.90
2023-01-26T22:56:12.137Z,42.77
2023-01-26T22:58:55.543Z,42.87
2023-01-26T23:01:24.744Z,52.83
2023-01-26T23:03:53.697Z,54.33
2023-01-26T23:06:21.455Z,43.37
2023-01-26T23:08:48.173Z,42.83
2023-01-26T23:11:21.330Z,43.93
2023-01-26T23:13:49.406Z,38.23
2023-01-26T23:16:16.803Z,40.07
2023-01-26T23:18:43.630Z,43.90
2023-01-26T23:21:10.932Z,41.53
2023-01-26T23:23:40.090Z,43.60
2023-01-26T23:26:07.573Z,45.23
2023-01-26T23:28:37.701Z,40.40
2023-01-26T23:31:05.331Z,39.37
2023-01-26T23:33:33.515Z,41.53
2023-01-26T23:36:00.276Z,46.83
2023-01-26T23:38:29.750Z,47.33
2023-01-26T23:40:56.834Z,45.07
2023-01-26T23:43:24.066Z,53.33
2023-01-26T23:45:51.047Z,53.17
2023-01-26T23:48:18.371Z,43.07
2023-01-26T23:50:45.850Z,46.30
2023-01-26T23:53:12.531Z,45.97
2023-01-26T23:55:43.388Z,48.77
2023-01-26T23:58:11.264Z,43.30
